AirNav   Pilot Hours Calculator
 
 1051 users online  

6KS9 Providence Medical Center Heliport
Kansas City, Kansas, USA

GOING TO KANSAS CITY?


FAA INFORMATION EFFECTIVE 30 DECEMBER 2021

Location

FAA Identifier: 6KS9
Lat/Long: 39-07-37.0120N 094-47-15.8610W
39-07.616867N 094-47.264350W
39.1269478,-94.7877392
(estimated)
Elevation: 986 ft. / 301 m (estimated)
Variation: 05E (1985)
Time zone: UTC -6 (UTC -5 during Daylight Saving Time)
Zip code: 66112

Heliport Operations

Heliport use: Private use, MEDICAL
Control tower: no
ARTCC: KANSAS CITY CENTER
FSS: COLUMBIA FLIGHT SERVICE STATION
Attendance: UNATNDD
Wind indicator: yes
Segmented circle: no
Lights: FOR PERIMETER LGTS CALL 913-596-4000.

Heliport Communications

WX ASOS at MKC (9 nm E): PHONE 816-329-2843
WX ASOS at MCI (11 nm N): PHONE 816-329-2808
WX ASOS at OJC (17 nm S): PHONE 913-780-6969
WX ASOS at IXD (18 nm S): 135.325 (913-780-6987)

Nearby radio navigation aids

VOR radial/distance  VOR name  Freq  Var
MCIr189/9.8KANSAS CITY VORTAC113.2505E
ANXr267/30.7NAPOLEON VORTAC114.0007E
TOPr086/35.4TOPEKA VORTAC117.8005E

Heliport Services

Runway Information

Helipad H1

Dimensions: 40 x 40 ft. / 12 x 12 m
WITHIN A 85' TURF TAKEOFF/LANDING AREA
Surface: asphalt
Runway edge lights: PERI
Latitude: 39-07.616867N
Longitude: 094-47.264350W
Elevation: 986.0 ft.
Traffic pattern: leftleft

Heliport Ownership and Management from official FAA records

Ownership: Privately-owned
Owner: PRIME HEALTHCARE SERVS-PROVIDENCE
8929 PARALLEL PKWY
KANSAS CITY, KS 66112
Phone 913-596-4000
DBA - PROVIDENCE MEDICAL CNTR
Manager: DEREK W. NOVOTNEY
8929 PARALLEL PKWY
KANSAS CITY, KS 66112
Phone (913) 596-4630
913-596-3712

Additional Remarks

FOR CD CTC KANSAS CITY APCH AT 816-329-2710.

Instrument Procedures

There are no published instrument procedures at 6KS9.

Some nearby airports with instrument procedures:

KMKC - Charles B Wheeler Downtown Airport (9 nm E)
KMCI - Kansas City International Airport (11 nm N)
KFLV - Sherman Army Airfield (16 nm N)
KOJC - Johnson County Executive Airport (17 nm S)
KIXD - New Century AirCenter Airport (18 nm S)
 
Loc | Ops | Rwys | IFR | FBO | Links
Com | Nav | Svcs | Stats | Notes
Area around 6KS9 (Providence Medical Center Heliport)
 
Road maps at: MapQuest Bing Google
 
Aerial photo
No photo
 
Sectional chart

 
Airport distance calculator
Flying to Providence Medical Center Heliport? Find the distance to fly.

From to 6KS9

Sunrise and sunset
Times for 24-Jan-2022
 Local
(UTC-6)
 Zulu
(UTC)
Morning civil twilight07:0413:04
Sunrise07:3313:33
Sunset17:2923:29
Evening civil twilight17:5823:58

Current date and time
Zulu (UTC)  24-Jan-2022 14:13:08
Local (UTC-6)  24-Jan-2022 08:13:08
 
METAR
KMKC 
9nm E 
241354Z 22004KT 10SM BKN110 05/M01 A2971 RMK AO2 SLP063 T00501011
KMCI 
11nm N 
241353Z 28006KT 10SM R19R/2400VP6000FT SCT075 OVC110 07/M02 A2971 RMK AO2 SLP062 T00671017
KOJC 
17nm S 
241353Z 28005KT 10SM OVC110 06/M01 A2972 RMK AO2 SLP068 T00611011
KIXD 
19nm S 
241353Z 26004KT 10SM FEW120 06/M02 A2973 RMK AO2 SLP071 T00561022
TAF
KMKC 
9nm E 
241120Z 2412/2512 22008KT P6SM BKN100 FM241600 33015G25KT P6SM BKN040 FM250300 36008KT P6SM FEW040
KMCI 
11nm N 
241120Z 2412/2512 22008KT P6SM BKN100 FM241600 33015G25KT P6SM BKN040 FM250300 36008KT P6SM FEW040
KIXD 
19nm S 
241120Z 2412/2512 22008KT P6SM BKN100 FM241700 33015G25KT P6SM BKN040 FM250400 36008KT P6SM FEW040
NOTAMs
Click for the latest NOTAMs
NOTAMs are issued by the DoD/FAA and will open in a separate window not controlled by AirNav.

 

 
 

Would you like to see your business listed on this page?

 If your business provides an interesting product or service to pilots, flight crews, aircraft, or users of the Providence Medical Center Heliport, you should consider listing it here.  To start the listing process, click on the button below
 
Add a business
 

Other Pages about Providence Medical Center Heliport

Update a link
 
Copyright © AirNav, LLC. All rights reserved. Privacy Policy  Contact